createdAt,value
2023-10-23T00:02:13.663Z,93.30
2023-10-23T00:04:41.060Z,93.40
2023-10-23T00:07:08.487Z,93.60
2023-10-23T00:09:35.662Z,93.70
2023-10-23T00:12:02.719Z,93.80
2023-10-23T00:14:29.791Z,93.90
2023-10-23T00:16:56.893Z,94.00
2023-10-23T00:19:24.008Z,94.00
2023-10-23T00:21:52.033Z,94.10
2023-10-23T00:24:19.033Z,94.10
2023-10-23T00:26:46.300Z,94.20
2023-10-23T00:29:14.174Z,94.40
2023-10-23T00:31:41.197Z,94.50
2023-10-23T00:34:08.335Z,94.70
2023-10-23T00:36:35.362Z,94.80
2023-10-23T00:39:02.994Z,94.90
2023-10-23T00:41:30.453Z,95.00
2023-10-23T00:43:57.528Z,95.20
2023-10-23T00:46:28.658Z,95.20
2023-10-23T00:48:55.808Z,95.40
2023-10-23T00:51:23.492Z,95.50
2023-10-23T00:53:50.982Z,95.60
2023-10-23T00:56:19.720Z,95.80
2023-10-23T00:58:47.707Z,96.10
2023-10-23T01:01:15.194Z,96.00
2023-10-23T01:03:44.220Z,96.10
2023-10-23T01:06:14.236Z,96.20
2023-10-23T01:08:43.408Z,96.30
2023-10-23T01:11:10.953Z,96.40
2023-10-23T01:13:39.401Z,96.40
2023-10-23T01:16:06.508Z,96.40
2023-10-23T01:18:33.987Z,96.70
2023-10-23T01:21:02.092Z,96.50
2023-10-23T01:23:36.975Z,96.70
2023-10-23T01:26:04.742Z,96.80
2023-10-23T01:28:31.682Z,97.10
2023-10-23T01:30:58.945Z,96.90
2023-10-23T01:33:26.431Z,96.90
2023-10-23T01:35:53.808Z,97.00
2023-10-23T01:38:21.248Z,97.10
2023-10-23T01:40:48.607Z,97.10
2023-10-23T01:43:16.842Z,97.20
2023-10-23T01:45:44.091Z,97.40
2023-10-23T01:48:11.815Z,97.40
2023-10-23T01:50:41.694Z,97.40
2023-10-23T01:53:09.434Z,97.50
2023-10-23T01:55:37.559Z,97.70
2023-10-23T01:58:05.677Z,98.00
2023-10-23T02:00:33.110Z,98.20
2023-10-23T02:03:00.900Z,98.30
2023-10-23T02:05:28.641Z,98.50
2023-10-23T02:07:56.141Z,98.60
2023-10-23T02:10:24.629Z,98.90
2023-10-23T02:12:51.854Z,99.20
2023-10-23T02:15:19.245Z,99.40
2023-10-23T02:17:46.540Z,99.90
2023-10-23T02:20:15.037Z,99.80
2023-10-23T02:22:42.239Z,99.90
2023-10-23T02:25:09.780Z,99.90
2023-10-23T02:27:36.899Z,99.90
2023-10-23T02:30:04.861Z,99.90
2023-10-23T02:32:32.010Z,99.90
2023-10-23T02:35:00.219Z,99.90
2023-10-23T02:37:28.075Z,99.90
2023-10-23T02:39:56.156Z,99.90
2023-10-23T02:42:23.683Z,99.90
2023-10-23T02:44:50.796Z,99.90
2023-10-23T02:47:18.229Z,99.90
2023-10-23T02:49:45.611Z,99.90
2023-10-23T02:52:12.747Z,99.90
2023-10-23T02:54:39.860Z,99.90
2023-10-23T02:57:07.494Z,99.90
2023-10-23T02:59:35.336Z,99.90
2023-10-23T03:02:02.711Z,99.90
2023-10-23T03:04:30.443Z,99.90
2023-10-23T03:06:58.045Z,99.90
2023-10-23T03:09:25.224Z,99.90
2023-10-23T03:11:52.312Z,99.90
2023-10-23T03:14:20.213Z,99.90
2023-10-23T03:16:48.457Z,99.90
2023-10-23T03:19:15.641Z,99.90
2023-10-23T03:21:43.069Z,99.90
2023-10-23T03:24:10.475Z,99.90
2023-10-23T03:26:37.637Z,99.90
2023-10-23T03:29:06.001Z,99.90
2023-10-23T03:31:34.183Z,99.90
2023-10-23T03:34:01.315Z,99.90
2023-10-23T03:36:28.612Z,99.90
2023-10-23T03:38:56.556Z,99.90
2023-10-23T03:41:23.682Z,99.90
2023-10-23T03:43:51.662Z,99.90
2023-10-23T03:46:18.963Z,99.90
2023-10-23T03:48:45.926Z,99.90
2023-10-23T03:51:13.212Z,99.90
2023-10-23T03:53:40.261Z,99.90
2023-10-23T03:56:07.471Z,99.90
2023-10-23T03:58:34.472Z,99.90
2023-10-23T04:01:01.676Z,99.90
2023-10-23T04:03:29.915Z,99.90
2023-10-23T04:06:00.017Z,99.90
2023-10-23T04:08:27.129Z,99.90
2023-10-23T04:10:54.706Z,99.90
2023-10-23T04:13:21.782Z,99.90
2023-10-23T04:15:57.784Z,99.90
2023-10-23T04:18:29.437Z,99.90
2023-10-23T04:21:09.099Z,99.90
2023-10-23T04:23:40.807Z,99.90
2023-10-23T04:26:08.926Z,99.90
2023-10-23T04:28:40.434Z,99.90
2023-10-23T04:31:07.655Z,99.90
2023-10-23T04:33:35.022Z,99.90
2023-10-23T04:36:02.258Z,99.90
2023-10-23T04:38:29.895Z,99.90
2023-10-23T04:40:57.072Z,99.90
2023-10-23T04:43:24.580Z,99.90
2023-10-23T04:45:54.762Z,99.90
2023-10-23T04:48:22.201Z,99.90
2023-10-23T04:50:49.465Z,99.90
2023-10-23T04:53:16.681Z,99.90
2023-10-23T04:55:44.016Z,99.90
2023-10-23T04:58:11.167Z,99.90
2023-10-23T05:00:39.769Z,99.90
2023-10-23T05:03:07.641Z,99.90
2023-10-23T05:05:37.170Z,99.90
2023-10-23T05:08:05.360Z,99.90
2023-10-23T05:10:32.636Z,99.90
2023-10-23T05:13:00.277Z,99.90
2023-10-23T05:15:29.473Z,99.90
2023-10-23T05:17:56.677Z,99.90
2023-10-23T05:20:23.732Z,99.90
2023-10-23T05:22:51.225Z,99.90
2023-10-23T05:25:19.229Z,99.90
2023-10-23T05:27:46.689Z,99.90
2023-10-23T05:30:13.845Z,99.90
2023-10-23T05:32:40.899Z,99.90
2023-10-23T05:35:08.415Z,99.90
2023-10-23T05:37:38.593Z,99.90
2023-10-23T05:40:07.008Z,99.90
2023-10-23T05:42:34.258Z,99.90
2023-10-23T05:45:04.145Z,99.90
2023-10-23T05:47:31.722Z,99.90
2023-10-23T05:49:59.178Z,99.90
2023-10-23T05:52:26.366Z,99.90
2023-10-23T05:54:53.806Z,99.90
2023-10-23T05:57:21.120Z,99.90
2023-10-23T05:59:48.482Z,99.90
2023-10-23T06:02:16.660Z,99.90
2023-10-23T06:04:44.796Z,99.90
2023-10-23T06:07:13.479Z,99.90
2023-10-23T06:09:41.558Z,99.90
2023-10-23T06:12:10.473Z,99.90
2023-10-23T06:14:38.238Z,99.90
2023-10-23T06:17:05.529Z,99.90
2023-10-23T06:19:32.779Z,99.90
2023-10-23T06:22:00.867Z,99.90
2023-10-23T06:24:28.999Z,99.90
2023-10-23T06:26:56.321Z,99.90
2023-10-23T06:29:25.058Z,99.90
2023-10-23T06:31:52.375Z,99.90
2023-10-23T06:34:19.669Z,99.90
2023-10-23T06:36:46.887Z,99.90
2023-10-23T06:39:14.099Z,99.90
2023-10-23T06:41:41.292Z,99.90
2023-10-23T06:44:10.796Z,99.90
2023-10-23T06:46:38.704Z,99.90
2023-10-23T06:49:06.123Z,99.90
2023-10-23T06:51:33.524Z,99.90
2023-10-23T06:54:00.582Z,99.90
2023-10-23T06:56:27.588Z,99.90
2023-10-23T06:58:54.723Z,99.90
2023-10-23T07:01:33.769Z,99.90
2023-10-23T07:04:05.634Z,99.90
2023-10-23T07:06:32.871Z,99.90
2023-10-23T07:09:00.779Z,99.90
2023-10-23T07:11:27.981Z,99.90
2023-10-23T07:13:54.936Z,99.90
2023-10-23T07:16:22.130Z,99.90
2023-10-23T07:18:49.356Z,99.90
2023-10-23T07:21:16.770Z,99.90
2023-10-23T07:23:44.246Z,99.90
2023-10-23T07:26:13.612Z,99.90
2023-10-23T07:28:41.753Z,99.90
2023-10-23T07:31:11.660Z,99.90
2023-10-23T07:33:39.462Z,99.90
2023-10-23T07:36:10.190Z,99.90
2023-10-23T07:38:41.689Z,99.90
2023-10-23T07:41:10.197Z,99.90
2023-10-23T07:43:37.530Z,99.90
2023-10-23T07:46:15.580Z,99.90
2023-10-23T07:48:44.535Z,99.90
2023-10-23T07:51:12.035Z,99.90
2023-10-23T07:53:39.221Z,99.90
2023-10-23T07:56:07.161Z,99.90
2023-10-23T07:58:44.145Z,99.90
2023-10-23T08:01:19.862Z,99.90
2023-10-23T08:03:48.607Z,99.90
2023-10-23T08:06:16.885Z,99.90
2023-10-23T08:08:46.052Z,99.90
2023-10-23T08:11:16.889Z,99.90
2023-10-23T08:13:44.734Z,99.90
2023-10-23T08:16:12.035Z,99.90
2023-10-23T08:18:41.408Z,99.90
2023-10-23T08:21:16.215Z,99.90
2023-10-23T08:23:47.798Z,99.90
2023-10-23T08:26:15.612Z,99.90
2023-10-23T08:31:29.262Z,99.90
2023-10-23T08:34:03.318Z,99.90
2023-10-23T08:36:31.113Z,99.90
2023-10-23T08:38:58.277Z,99.90
2023-10-23T08:41:27.197Z,99.90
2023-10-23T08:43:56.774Z,99.90
2023-10-23T08:46:33.890Z,99.90
2023-10-23T08:49:06.149Z,99.80
2023-10-23T08:51:33.500Z,99.70
2023-10-23T08:54:19.042Z,99.60
2023-10-23T08:56:54.590Z,99.50
2023-10-23T08:59:21.942Z,99.40
2023-10-23T09:01:49.763Z,99.30
2023-10-23T09:04:17.389Z,99.10
2023-10-23T09:06:45.164Z,99.00
2023-10-23T09:09:13.126Z,98.80
2023-10-23T09:11:47.021Z,98.80
2023-10-23T09:14:26.634Z,98.70
2023-10-23T09:16:56.492Z,98.60
2023-10-23T09:19:39.428Z,98.70
2023-10-23T09:22:14.058Z,98.50
2023-10-23T09:24:41.807Z,98.50
2023-10-23T09:27:09.384Z,98.30
2023-10-23T09:29:36.632Z,98.00
2023-10-23T09:32:06.741Z,97.70
2023-10-23T09:34:34.564Z,97.30
2023-10-23T09:37:02.113Z,97.40
2023-10-23T09:39:29.359Z,96.70
2023-10-23T09:41:56.975Z,96.40
2023-10-23T09:44:28.292Z,95.90
2023-10-23T09:46:58.390Z,95.30
2023-10-23T09:49:28.244Z,95.00
2023-10-23T09:52:01.384Z,94.50
2023-10-23T09:54:32.911Z,93.80
2023-10-23T09:57:07.503Z,93.30
2023-10-23T09:59:50.199Z,92.60
2023-10-23T10:02:20.555Z,91.90
2023-10-23T10:04:57.705Z,91.50
2023-10-23T10:07:46.923Z,90.70
2023-10-23T10:10:15.830Z,89.70
2023-10-23T10:12:45.530Z,89.70
2023-10-23T10:15:13.400Z,89.10
2023-10-23T10:17:44.616Z,88.70
2023-10-23T10:20:13.271Z,87.60
2023-10-23T10:22:43.099Z,87.00
2023-10-23T10:25:12.528Z,86.00
2023-10-23T10:27:40.068Z,85.40
2023-10-23T10:30:47.135Z,85.60
2023-10-23T10:34:19.742Z,85.00
2023-10-23T10:36:45.894Z,83.90
2023-10-23T10:39:08.774Z,83.70
2023-10-23T10:41:36.927Z,82.00
2023-10-23T10:44:13.367Z,78.90
2023-10-23T10:46:43.908Z,75.10
2023-10-23T10:49:16.019Z,73.10
2023-10-23T10:51:43.464Z,71.50
2023-10-23T10:54:12.534Z,70.00
2023-10-23T10:56:40.073Z,68.50
2023-10-23T10:59:07.164Z,66.00
2023-10-23T11:01:34.950Z,63.50
2023-10-23T11:04:03.050Z,62.20
2023-10-23T11:06:30.930Z,61.90
2023-10-23T11:08:59.804Z,61.30
2023-10-23T11:11:29.099Z,59.90
2023-10-23T11:13:56.541Z,58.80
2023-10-23T11:16:24.470Z,57.30
2023-10-23T11:18:52.950Z,56.40
2023-10-23T11:21:24.584Z,56.10
2023-10-23T11:23:59.047Z,56.40
2023-10-23T11:26:27.998Z,56.20
2023-10-23T11:28:55.069Z,57.00
2023-10-23T11:31:23.157Z,58.00
2023-10-23T11:33:56.787Z,58.50
2023-10-23T11:36:24.096Z,57.10
2023-10-23T11:38:51.927Z,57.90
2023-10-23T11:41:19.145Z,57.00
2023-10-23T11:43:46.241Z,56.60
2023-10-23T11:46:13.825Z,55.80
2023-10-23T11:48:41.026Z,54.30
2023-10-23T11:51:10.166Z,52.70
2023-10-23T11:53:37.482Z,48.40
2023-10-23T11:56:05.536Z,47.00
2023-10-23T11:58:32.764Z,45.70
2023-10-23T12:00:59.955Z,44.80
2023-10-23T12:03:27.487Z,44.10
2023-10-23T12:05:54.624Z,44.30
2023-10-23T12:08:21.894Z,44.80
2023-10-23T12:10:49.085Z,45.00
2023-10-23T12:13:16.419Z,45.30
2023-10-23T12:15:43.921Z,45.90
2023-10-23T12:18:11.464Z,46.40
2023-10-23T12:20:39.180Z,46.80
2023-10-23T12:23:06.889Z,47.30
2023-10-23T12:25:34.530Z,47.80
2023-10-23T12:28:01.671Z,49.10
2023-10-23T12:30:29.515Z,50.60
2023-10-23T12:33:17.999Z,51.00
2023-10-23T12:35:45.043Z,50.90
2023-10-23T12:38:13.259Z,50.80
2023-10-23T12:40:42.226Z,50.90
2023-10-23T12:43:11.432Z,51.00
2023-10-23T12:45:38.813Z,51.40
2023-10-23T12:48:06.752Z,51.80
2023-10-23T12:50:34.667Z,52.40
2023-10-23T12:53:02.366Z,53.00
2023-10-23T12:55:29.827Z,53.40
2023-10-23T12:57:57.212Z,53.80
2023-10-23T13:00:24.391Z,54.30
2023-10-23T13:02:51.465Z,54.80
2023-10-23T13:05:18.673Z,55.40
2023-10-23T13:07:45.754Z,55.80
2023-10-23T13:10:12.904Z,56.30
2023-10-23T13:12:40.300Z,56.70
2023-10-23T13:15:07.821Z,57.10
2023-10-23T13:17:35.030Z,57.60
2023-10-23T13:20:53.985Z,58.50
2023-10-23T13:22:54.786Z,58.40
2023-10-23T13:25:22.675Z,58.30
2023-10-23T13:27:49.907Z,58.10
2023-10-23T13:30:17.921Z,58.00
2023-10-23T13:32:45.010Z,57.80
2023-10-23T13:35:30.562Z,57.60
2023-10-23T13:37:58.051Z,57.40
2023-10-23T13:40:25.293Z,57.50
2023-10-23T13:42:52.435Z,58.20
2023-10-23T13:45:19.782Z,58.80
2023-10-23T13:47:47.384Z,58.50
2023-10-23T13:50:14.726Z,58.00
2023-10-23T13:52:42.630Z,57.30
2023-10-23T13:55:11.541Z,56.30
2023-10-23T13:57:39.961Z,55.40
2023-10-23T14:00:08.104Z,55.10
2023-10-23T14:02:38.994Z,54.70
2023-10-23T14:05:06.945Z,54.20
2023-10-23T14:07:35.308Z,53.90
2023-10-23T14:10:03.611Z,53.90
2023-10-23T14:12:30.766Z,53.90
2023-10-23T14:14:58.022Z,53.90
2023-10-23T14:17:25.345Z,54.10
2023-10-23T14:19:52.718Z,54.70
2023-10-23T14:22:20.461Z,55.20
2023-10-23T14:24:51.500Z,55.50
2023-10-23T14:27:18.811Z,55.80
2023-10-23T14:29:45.851Z,56.00
2023-10-23T14:32:13.657Z,56.20
2023-10-23T14:34:40.924Z,57.10
2023-10-23T14:37:08.085Z,56.90
2023-10-23T14:39:35.268Z,57.40
2023-10-23T14:42:02.337Z,57.70
2023-10-23T14:44:30.777Z,58.00
2023-10-23T14:46:58.258Z,58.50
2023-10-23T14:49:25.513Z,58.90
2023-10-23T14:51:53.015Z,59.20
2023-10-23T14:54:21.103Z,59.40
2023-10-23T14:56:50.872Z,59.80
2023-10-23T14:59:18.618Z,60.30
2023-10-23T15:01:45.962Z,60.70
2023-10-23T15:04:13.651Z,61.40
2023-10-23T15:06:41.058Z,61.90
2023-10-23T15:09:08.537Z,62.60
2023-10-23T15:11:35.749Z,63.10
2023-10-23T15:14:03.302Z,63.80
2023-10-23T15:16:33.783Z,64.40
2023-10-23T15:19:03.601Z,65.10
2023-10-23T15:21:30.931Z,65.60
2023-10-23T15:23:58.419Z,66.40
2023-10-23T15:26:25.482Z,66.90
2023-10-23T15:28:52.609Z,67.50
2023-10-23T15:31:20.159Z,68.20
2023-10-23T15:33:47.553Z,68.90
2023-10-23T15:36:15.037Z,69.30
2023-10-23T15:38:42.859Z,70.00
2023-10-23T15:41:12.415Z,70.50
2023-10-23T15:43:41.471Z,71.40
2023-10-23T15:46:17.379Z,72.10
2023-10-23T15:48:46.126Z,73.20
2023-10-23T15:51:13.621Z,73.20
2023-10-23T15:53:40.964Z,73.70
2023-10-23T15:56:08.974Z,74.50
2023-10-23T15:58:36.489Z,75.00
2023-10-23T16:01:05.352Z,75.60
2023-10-23T16:03:36.769Z,76.20
2023-10-23T16:06:10.213Z,77.10
2023-10-23T16:08:38.763Z,78.20
2023-10-23T16:11:08.821Z,77.90
2023-10-23T16:13:39.819Z,78.50
2023-10-23T16:16:16.548Z,79.40
2023-10-23T16:18:45.828Z,80.50
2023-10-23T16:21:15.520Z,80.60
2023-10-23T16:23:43.421Z,81.40
2023-10-23T16:26:11.533Z,82.00
2023-10-23T16:28:40.095Z,82.50
2023-10-23T16:31:09.752Z,83.90
2023-10-23T16:33:37.474Z,83.80
2023-10-23T16:36:05.098Z,84.40
2023-10-23T16:38:32.148Z,84.90
2023-10-23T16:40:59.364Z,85.50
2023-10-23T16:43:26.539Z,86.10
2023-10-23T16:45:53.765Z,86.80
2023-10-23T16:48:20.894Z,87.40
2023-10-23T16:50:48.043Z,87.90
2023-10-23T16:53:15.226Z,88.50
2023-10-23T16:55:42.774Z,89.00
2023-10-23T16:58:10.088Z,89.60
2023-10-23T17:00:39.191Z,90.00
2023-10-23T17:03:06.493Z,90.40
2023-10-23T17:05:36.549Z,90.60
2023-10-23T17:08:04.188Z,90.80
2023-10-23T17:10:31.795Z,91.00
2023-10-23T17:12:59.072Z,91.20
2023-10-23T17:15:26.176Z,91.40
2023-10-23T17:17:53.641Z,91.60
2023-10-23T17:20:21.293Z,91.90
2023-10-23T17:22:49.150Z,92.20
2023-10-23T17:25:16.672Z,92.30
2023-10-23T17:27:44.366Z,92.50
2023-10-23T17:30:13.196Z,92.70
2023-10-23T17:32:41.622Z,92.90
2023-10-23T17:35:09.401Z,93.20
2023-10-23T17:37:36.758Z,93.40
2023-10-23T17:40:05.360Z,93.60
2023-10-23T17:42:32.459Z,93.80
2023-10-23T17:44:59.735Z,94.00
2023-10-23T17:47:29.117Z,94.10
2023-10-23T17:49:57.807Z,94.40
2023-10-23T17:52:28.754Z,94.50
2023-10-23T17:54:57.897Z,94.70
2023-10-23T17:57:27.506Z,95.00
2023-10-23T17:59:54.790Z,95.10
2023-10-23T18:02:22.321Z,95.30
2023-10-23T18:04:49.770Z,95.40
2023-10-23T18:07:17.792Z,95.60
2023-10-23T18:09:45.009Z,95.80
2023-10-23T18:12:26.663Z,96.00
2023-10-23T18:14:54.707Z,96.30
2023-10-23T18:17:23.789Z,96.30
2023-10-23T18:19:51.132Z,96.50
2023-10-23T18:22:20.541Z,96.60
2023-10-23T18:24:50.453Z,96.80
2023-10-23T18:27:18.234Z,96.90
2023-10-23T18:29:46.034Z,97.10
2023-10-23T18:32:15.807Z,97.20
2023-10-23T18:34:43.468Z,97.30
2023-10-23T18:37:11.794Z,97.40
2023-10-23T18:39:39.427Z,97.50
2023-10-23T18:42:09.813Z,97.60
2023-10-23T18:44:37.202Z,97.70
2023-10-23T18:47:06.531Z,97.80
2023-10-23T18:49:34.573Z,97.90
2023-10-23T18:52:01.729Z,98.00
2023-10-23T18:54:29.920Z,98.00
2023-10-23T18:57:01.153Z,98.10
2023-10-23T18:59:28.485Z,98.20
2023-10-23T19:01:56.079Z,98.40
2023-10-23T19:04:23.461Z,98.40
2023-10-23T19:06:50.568Z,98.50
2023-10-23T19:09:17.978Z,98.60
2023-10-23T19:11:45.261Z,98.70
2023-10-23T19:14:12.680Z,98.70
2023-10-23T19:16:40.029Z,98.70
2023-10-23T19:19:08.222Z,98.80
2023-10-23T19:21:36.763Z,98.70
2023-10-23T19:24:05.144Z,98.80
2023-10-23T19:26:32.551Z,98.80
2023-10-23T19:28:59.782Z,98.80
2023-10-23T19:31:27.815Z,99.00
2023-10-23T19:33:55.552Z,99.00
2023-10-23T19:36:25.393Z,99.10
2023-10-23T19:38:53.424Z,99.10
2023-10-23T19:41:49.516Z,99.20
2023-10-23T19:44:18.175Z,99.30
2023-10-23T19:46:46.147Z,99.20
2023-10-23T19:49:13.828Z,99.30
2023-10-23T19:51:44.561Z,99.40
2023-10-23T19:54:37.785Z,99.60
2023-10-23T19:57:00.525Z,99.60
2023-10-23T19:59:28.299Z,99.60
2023-10-23T20:01:58.992Z,99.70
2023-10-23T20:04:27.717Z,99.80
2023-10-23T20:06:55.381Z,99.90
2023-10-23T20:09:22.884Z,99.90
2023-10-23T20:11:50.538Z,99.90
2023-10-23T20:14:17.706Z,99.90
2023-10-23T20:16:45.458Z,99.90
2023-10-23T20:19:13.865Z,99.90
2023-10-23T20:21:41.101Z,99.90
2023-10-23T20:24:09.040Z,99.90
2023-10-23T20:26:36.257Z,99.90
2023-10-23T20:29:03.571Z,99.90
2023-10-23T20:31:30.780Z,99.90
2023-10-23T20:33:58.039Z,99.90
2023-10-23T20:36:25.594Z,99.90
2023-10-23T20:38:52.794Z,99.90
2023-10-23T20:41:20.436Z,99.90
2023-10-23T20:43:49.770Z,99.90
2023-10-23T20:46:18.674Z,99.90
2023-10-23T20:48:46.137Z,99.90
2023-10-23T20:51:13.464Z,99.90
2023-10-23T20:53:40.894Z,99.90
2023-10-23T20:56:08.665Z,99.90
2023-10-23T20:58:36.016Z,99.90
2023-10-23T21:01:10.208Z,99.90
2023-10-23T21:03:37.835Z,99.90
2023-10-23T21:06:06.778Z,99.90
2023-10-23T21:08:38.921Z,99.90
2023-10-23T21:11:08.462Z,99.90
2023-10-23T21:13:37.234Z,99.90
2023-10-23T21:16:08.125Z,99.90
2023-10-23T21:18:35.779Z,99.90
2023-10-23T21:21:04.031Z,99.90
2023-10-23T21:23:31.768Z,99.90
2023-10-23T21:26:05.920Z,99.90
2023-10-23T21:28:34.208Z,99.90
2023-10-23T21:31:02.231Z,99.90
2023-10-23T21:33:30.153Z,99.90
2023-10-23T21:35:57.833Z,99.90
2023-10-23T21:38:25.687Z,99.90
2023-10-23T21:40:53.352Z,99.90
2023-10-23T21:43:21.442Z,99.90
2023-10-23T21:45:55.878Z,99.90
2023-10-23T21:48:29.387Z,99.90
2023-10-23T21:50:56.944Z,99.90
2023-10-23T21:53:24.833Z,99.90
2023-10-23T21:55:52.489Z,99.90
2023-10-23T21:58:19.939Z,99.90
2023-10-23T22:00:47.699Z,99.90
2023-10-23T22:03:15.363Z,99.90
2023-10-23T22:05:43.588Z,99.90
2023-10-23T22:08:11.466Z,99.90
2023-10-23T22:10:39.936Z,99.90
2023-10-23T22:13:07.531Z,99.90
2023-10-23T22:15:34.649Z,99.90
2023-10-23T22:18:02.436Z,99.90
2023-10-23T22:20:29.734Z,99.90
2023-10-23T22:22:56.828Z,99.90
2023-10-23T22:25:24.166Z,99.90
2023-10-23T22:27:51.279Z,99.90
2023-10-23T22:30:18.556Z,99.90
2023-10-23T22:32:51.789Z,99.90
2023-10-23T22:35:24.855Z,99.90
2023-10-23T22:38:08.628Z,99.90
2023-10-23T22:40:37.423Z,99.90
2023-10-23T22:43:05.087Z,99.90
2023-10-23T22:45:41.248Z,99.90
2023-10-23T22:48:14.609Z,99.90
2023-10-23T22:50:42.219Z,99.90
2023-10-23T22:53:09.830Z,99.90
2023-10-23T22:55:37.454Z,99.90
2023-10-23T22:58:06.924Z,99.90
2023-10-23T23:00:35.093Z,99.90
2023-10-23T23:03:02.758Z,99.90
2023-10-23T23:05:30.388Z,99.90
2023-10-23T23:07:58.835Z,99.90
2023-10-23T23:10:28.609Z,99.90
2023-10-23T23:12:57.414Z,99.90
2023-10-23T23:15:24.822Z,99.90
2023-10-23T23:17:53.103Z,99.90
2023-10-23T23:20:23.440Z,99.90
2023-10-23T23:22:51.168Z,99.90
2023-10-23T23:25:18.789Z,99.90
2023-10-23T23:27:46.340Z,99.90
2023-10-23T23:30:13.815Z,99.90
2023-10-23T23:32:40.892Z,99.90
2023-10-23T23:35:08.880Z,99.90
2023-10-23T23:37:37.030Z,99.90
2023-10-23T23:40:05.779Z,99.90
2023-10-23T23:42:33.031Z,99.90
2023-10-23T23:45:00.257Z,99.90
2023-10-23T23:47:27.571Z,99.90
2023-10-23T23:49:54.775Z,99.90
2023-10-23T23:52:23.226Z,99.90
2023-10-23T23:54:50.987Z,99.90
2023-10-23T23:57:18.245Z,99.90
2023-10-23T23:59:45.415Z,99.90
